Birjand, Iran
Current Conditions -  °F | °C
As of 9:00 PM on Thursday 23 Oct 2014 (Local Time) from OIMB Reporting Station
Clear Clear  
Wind Chill: 55°   Ceiling: Unl
Heat Index: 55°   Visibility: 6mi
Dew Point: 23°   Wind: 5mph
Humidity: 28%   Direction: 90°E
Pressure: 30.21"   Gusts: NA
Location:  32.88°N, 59.22°E
Report Text: OIMB 231800Z 09004KT CAVOK 13/M05 Q1023
Loading
Personal Weather Stations






























Interactive Weather Map
Tropical Storm Tracking
New forecast layout! Learn more

10-Day Weather Forecast

Advertisements
Track Severe Weather on mobile